createdAt,value
2022-12-31T00:01:40.067Z,101844.36
2022-12-31T00:04:08.820Z,101846.40
2022-12-31T00:06:37.717Z,101845.72
2022-12-31T00:09:08.700Z,101849.08
2022-12-31T00:11:38.044Z,101855.09
2022-12-31T00:14:07.576Z,101858.20
2022-12-31T00:16:40.629Z,101864.16
2022-12-31T00:19:11.749Z,101864.16
2022-12-31T00:21:40.592Z,101868.27
2022-12-31T00:24:11.452Z,101871.72
2022-12-31T00:26:40.309Z,101875.17
2022-12-31T00:29:10.323Z,101875.55
2022-12-31T00:31:39.399Z,101877.45
2022-12-31T00:34:08.126Z,101876.94
2022-12-31T00:36:39.846Z,101876.73
2022-12-31T00:39:10.287Z,101878.55
2022-12-31T00:41:39.322Z,101869.34
2022-12-31T00:44:08.102Z,101864.08
2022-12-31T00:49:04.699Z,101863.27
2022-12-31T00:51:33.772Z,101871.68
2022-12-31T00:54:02.442Z,101880.89
2022-12-31T00:56:32.157Z,101881.54
2022-12-31T00:59:01.156Z,101876.92
2022-12-31T01:01:36.746Z,101872.80
2022-12-31T01:04:16.918Z,101872.23
2022-12-31T01:06:46.387Z,101871.28
2022-12-31T01:09:17.070Z,101873.67
2022-12-31T01:11:45.897Z,101872.64
2022-12-31T01:14:19.051Z,101871.31
2022-12-31T01:16:53.114Z,101868.11
2022-12-31T01:19:29.177Z,101867.14
2022-12-31T01:21:58.114Z,101863.05
2022-12-31T01:24:26.986Z,101864.63
2022-12-31T01:26:58.078Z,101869.48
2022-12-31T01:29:27.810Z,101871.92
2022-12-31T01:31:56.616Z,101870.46
2022-12-31T01:34:25.502Z,101869.21
2022-12-31T01:36:54.701Z,101870.39
2022-12-31T01:39:23.503Z,101877.23
2022-12-31T01:41:52.464Z,101874.47
2022-12-31T01:44:27.150Z,101873.04
2022-12-31T01:47:01.307Z,101878.77
2022-12-31T01:49:41.508Z,101879.67
2022-12-31T01:52:23.489Z,101877.33
2022-12-31T01:55:05.505Z,101874.65
2022-12-31T01:57:35.841Z,101872.31
2022-12-31T02:00:07.045Z,101872.80
2022-12-31T02:02:36.079Z,101876.09
2022-12-31T02:05:16.690Z,101877.98
2022-12-31T02:07:47.791Z,101871.80
2022-12-31T02:10:16.781Z,101875.06
2022-12-31T02:12:47.281Z,101874.56
2022-12-31T02:15:16.912Z,101877.89
2022-12-31T02:18:14.483Z,101877.59
2022-12-31T02:21:30.778Z,101876.61
2022-12-31T02:24:05.112Z,101880.02
2022-12-31T02:26:56.724Z,101880.70
2022-12-31T02:29:52.335Z,101881.58
2022-12-31T02:33:05.866Z,101887.70
2022-12-31T02:36:03.087Z,101883.95
2022-12-31T02:38:36.188Z,101876.98
2022-12-31T02:41:05.343Z,101877.57
2022-12-31T02:43:34.078Z,101878.59
2022-12-31T02:46:26.259Z,101875.34
2022-12-31T02:49:26.847Z,101879.13
2022-12-31T02:52:34.333Z,101884.87
2022-12-31T02:55:24.463Z,101890.77
2022-12-31T02:58:11.255Z,101892.21
2022-12-31T03:01:05.796Z,101895.67
2022-12-31T03:03:36.366Z,101895.05
2022-12-31T03:06:08.197Z,101898.84
2022-12-31T03:08:56.915Z,101901.42
2022-12-31T03:11:44.224Z,101899.27
2022-12-31T03:14:13.110Z,101892.11
2022-12-31T03:16:41.865Z,101887.35
2022-12-31T03:19:29.021Z,101898.11
2022-12-31T03:22:16.389Z,101902.33
2022-12-31T03:25:03.584Z,101902.31
2022-12-31T03:27:32.317Z,101901.15
2022-12-31T03:30:02.237Z,101906.94
2022-12-31T03:32:30.979Z,101908.14
2022-12-31T03:34:59.793Z,101910.91
2022-12-31T03:37:28.634Z,101910.80
2022-12-31T03:39:57.686Z,101910.98
2022-12-31T03:42:26.489Z,101910.42
2022-12-31T03:44:55.336Z,101911.27
2022-12-31T03:47:24.104Z,101912.26
2022-12-31T03:49:52.979Z,101910.30
2022-12-31T03:52:22.131Z,101910.34
2022-12-31T03:54:51.009Z,101909.34
2022-12-31T03:57:19.872Z,101911.77
2022-12-31T03:59:48.590Z,101911.59
2022-12-31T04:02:17.494Z,101909.86
2022-12-31T04:04:46.804Z,101913.67
2022-12-31T04:07:15.632Z,101914.20
2022-12-31T04:09:44.401Z,101912.15
2022-12-31T04:12:13.223Z,101912.29
2022-12-31T04:14:42.002Z,101917.20
2022-12-31T04:17:10.844Z,101920.25
2022-12-31T04:19:39.799Z,101923.84
2022-12-31T04:22:09.147Z,101917.86
2022-12-31T04:24:37.951Z,101913.24
2022-12-31T04:27:08.073Z,101918.23
2022-12-31T04:29:37.074Z,101918.52
2022-12-31T04:32:07.640Z,101922.33
2022-12-31T04:34:36.865Z,101921.13
2022-12-31T04:37:05.617Z,101921.84
2022-12-31T04:39:34.472Z,101926.45
2022-12-31T04:42:03.408Z,101934.72
2022-12-31T04:44:35.071Z,101939.55
2022-12-31T04:47:03.969Z,101949.38
2022-12-31T04:49:32.715Z,101950.42
2022-12-31T04:52:01.497Z,101950.42
2022-12-31T04:54:30.213Z,101954.52
2022-12-31T04:56:59.025Z,101959.94
2022-12-31T04:59:27.752Z,101956.52
2022-12-31T05:01:56.702Z,101957.07
2022-12-31T05:04:25.785Z,101953.68
2022-12-31T05:06:54.613Z,101951.38
2022-12-31T05:09:24.269Z,101949.02
2022-12-31T05:11:53.191Z,101950.91
2022-12-31T05:14:22.103Z,101949.71
2022-12-31T05:16:51.114Z,101945.98
2022-12-31T05:19:20.023Z,101949.40
2022-12-31T05:22:08.815Z,101947.50
2022-12-31T05:24:37.521Z,101949.92
2022-12-31T05:27:06.290Z,101949.77
2022-12-31T05:29:35.072Z,101945.33
2022-12-31T05:32:03.830Z,101958.80
2022-12-31T05:34:32.598Z,101960.47
2022-12-31T05:37:01.456Z,101965.76
2022-12-31T05:39:30.183Z,101969.56
2022-12-31T05:41:59.041Z,101971.20
2022-12-31T05:44:27.851Z,101971.39
2022-12-31T05:46:56.702Z,101969.17
2022-12-31T05:49:25.540Z,101967.48
2022-12-31T05:51:54.271Z,101971.78
2022-12-31T05:54:22.968Z,101969.22
2022-12-31T05:56:51.980Z,101966.17
2022-12-31T05:59:21.054Z,101975.05
2022-12-31T06:01:49.830Z,101974.72
2022-12-31T06:04:18.839Z,101977.11
2022-12-31T06:06:47.819Z,101978.63
2022-12-31T06:09:18.272Z,101977.75
2022-12-31T06:11:48.070Z,101981.19
2022-12-31T06:14:16.952Z,101984.44
2022-12-31T06:16:45.764Z,101986.27
2022-12-31T06:19:14.548Z,101996.02
2022-12-31T06:21:43.393Z,101997.84
2022-12-31T06:24:12.465Z,101997.46
2022-12-31T06:26:41.542Z,101998.15
2022-12-31T06:29:11.254Z,101996.81
2022-12-31T06:31:39.971Z,101998.95
2022-12-31T06:34:08.720Z,102001.27
2022-12-31T06:36:37.520Z,102005.46
2022-12-31T06:39:07.324Z,102012.05
2022-12-31T06:41:36.552Z,102021.56
2022-12-31T06:44:05.806Z,102021.65
2022-12-31T06:46:34.620Z,102013.75
2022-12-31T06:49:03.423Z,102018.39
2022-12-31T06:51:32.230Z,102019.91
2022-12-31T06:54:01.020Z,102020.36
2022-12-31T06:56:34.363Z,102026.46
2022-12-31T06:59:05.331Z,102028.29
2022-12-31T07:01:49.760Z,102033.02
2022-12-31T07:04:52.666Z,102036.03
2022-12-31T07:07:41.432Z,102040.02
2022-12-31T07:10:37.965Z,102044.34
2022-12-31T07:13:33.838Z,102039.73
2022-12-31T07:16:29.339Z,102035.80
2022-12-31T07:19:25.333Z,102037.41
2022-12-31T07:21:56.216Z,102034.54
2022-12-31T07:24:25.603Z,102036.41
2022-12-31T07:27:30.394Z,102027.98
2022-12-31T07:30:09.938Z,102034.81
2022-12-31T07:33:07.355Z,102032.04
2022-12-31T07:36:06.250Z,102033.52
2022-12-31T07:39:07.367Z,102033.65
2022-12-31T07:42:03.797Z,102034.63
2022-12-31T07:44:54.304Z,102037.84
2022-12-31T07:47:27.378Z,102040.52
2022-12-31T07:49:57.975Z,102043.38
2022-12-31T07:52:27.495Z,102035.13
2022-12-31T07:54:56.487Z,102034.18
2022-12-31T07:57:36.420Z,102035.86
2022-12-31T08:00:15.892Z,102033.52
2022-12-31T08:03:18.874Z,102034.80
2022-12-31T08:06:41.879Z,102039.30
2022-12-31T08:09:58.423Z,102045.52
2022-12-31T08:12:34.491Z,102043.84
2022-12-31T08:15:12.457Z,102043.98
2022-12-31T08:17:42.473Z,102039.85
2022-12-31T08:20:16.784Z,102041.41
2022-12-31T08:23:27.093Z,102041.31
2022-12-31T08:26:33.376Z,102041.96
2022-12-31T08:29:36.176Z,102037.73
2022-12-31T08:32:51.231Z,102031.20
2022-12-31T08:35:47.404Z,102032.27
2022-12-31T08:38:43.741Z,102033.91
2022-12-31T08:41:24.178Z,102026.67
2022-12-31T08:44:29.566Z,102022.05
2022-12-31T08:47:09.442Z,102021.28
2022-12-31T08:49:38.970Z,102011.80
2022-12-31T08:52:16.480Z,101996.02
2022-12-31T08:54:45.644Z,101988.55
2022-12-31T08:57:38.627Z,101989.72
2022-12-31T09:00:14.006Z,101994.93
2022-12-31T09:03:27.320Z,101999.73
2022-12-31T09:06:10.533Z,101993.86
2022-12-31T09:09:04.021Z,101989.77
2022-12-31T09:11:54.011Z,101988.46
2022-12-31T09:14:50.226Z,101985.66
2022-12-31T09:17:48.842Z,101985.38
2022-12-31T09:20:42.443Z,101981.10
2022-12-31T09:23:14.206Z,101975.15
2022-12-31T09:25:57.793Z,101969.40
2022-12-31T09:28:40.624Z,101968.52
2022-12-31T09:31:22.003Z,101966.08
2022-12-31T09:34:21.812Z,101960.40
2022-12-31T09:36:57.689Z,101952.88
2022-12-31T09:39:48.826Z,101952.80
2022-12-31T09:43:05.426Z,101949.90
2022-12-31T09:45:58.142Z,101948.02
2022-12-31T09:49:10.316Z,101944.38
2022-12-31T09:52:16.251Z,101949.83
2022-12-31T09:55:19.228Z,101946.38
2022-12-31T09:58:26.090Z,101942.08
2022-12-31T10:01:07.405Z,101942.52
2022-12-31T10:04:12.759Z,101939.25
2022-12-31T10:06:51.465Z,101941.02
2022-12-31T10:09:49.035Z,101941.15
2022-12-31T10:12:51.453Z,101943.36
2022-12-31T10:15:38.752Z,101944.48
2022-12-31T10:18:43.722Z,101950.02
2022-12-31T10:22:01.565Z,101944.98
2022-12-31T10:25:18.430Z,101936.70
2022-12-31T10:28:00.547Z,101938.52
2022-12-31T10:30:35.289Z,101937.33
2022-12-31T10:33:34.337Z,101944.03
2022-12-31T10:36:15.651Z,101942.16
2022-12-31T10:39:15.426Z,101936.97
2022-12-31T10:42:28.669Z,101930.01
2022-12-31T10:45:32.079Z,101922.36
2022-12-31T10:48:26.002Z,101913.98
2022-12-31T10:51:19.451Z,101904.58
2022-12-31T10:54:31.522Z,101896.39
2022-12-31T10:57:41.023Z,101885.65
2022-12-31T11:00:19.150Z,101876.92
2022-12-31T11:03:31.016Z,101879.98
2022-12-31T11:06:50.706Z,101889.06
2022-12-31T11:10:15.309Z,101892.39
2022-12-31T11:13:40.153Z,101883.59
2022-12-31T11:16:51.295Z,101882.47
2022-12-31T11:19:44.232Z,101879.23
2022-12-31T11:23:12.394Z,101863.86
2022-12-31T11:26:09.624Z,101861.79
2022-12-31T11:28:49.883Z,101860.55
2022-12-31T11:31:39.795Z,101858.70
2022-12-31T11:34:43.679Z,101857.41
2022-12-31T11:37:42.661Z,101863.23
2022-12-31T11:41:00.545Z,101859.52
2022-12-31T11:44:07.006Z,101858.36
2022-12-31T11:46:51.603Z,101858.54
2022-12-31T11:50:22.047Z,101867.25
2022-12-31T11:53:35.090Z,101864.23
2022-12-31T11:56:26.335Z,101862.14
2022-12-31T11:58:56.781Z,101864.48
2022-12-31T12:01:41.853Z,101867.55
2022-12-31T12:04:11.850Z,101872.95
2022-12-31T12:06:41.406Z,101869.05
2022-12-31T12:09:28.151Z,101868.58
2022-12-31T12:12:06.021Z,101858.26
2022-12-31T12:14:41.725Z,101859.77
2022-12-31T12:17:18.366Z,101861.73
2022-12-31T12:19:54.897Z,101863.16
2022-12-31T12:22:26.993Z,101866.16
2022-12-31T12:25:03.208Z,101867.45
2022-12-31T12:27:35.860Z,101863.89
2022-12-31T12:30:21.923Z,101862.37
2022-12-31T12:35:25.352Z,101858.03
2022-12-31T12:38:23.272Z,101855.88
2022-12-31T12:41:02.350Z,101862.25
2022-12-31T12:43:37.660Z,101871.04
2022-12-31T12:46:20.828Z,101871.79
2022-12-31T12:48:56.499Z,101874.23
2022-12-31T12:52:30.574Z,101877.93
2022-12-31T12:55:21.563Z,101860.17
2022-12-31T12:58:37.280Z,101853.42
2022-12-31T13:01:35.084Z,101855.35
2022-12-31T13:04:59.766Z,101856.33
2022-12-31T13:07:48.079Z,101862.67
2022-12-31T13:10:54.100Z,101873.20
2022-12-31T13:13:35.215Z,101863.70
2022-12-31T13:16:33.496Z,101859.16
2022-12-31T13:19:22.608Z,101858.42
2022-12-31T13:22:30.423Z,101866.33
2022-12-31T13:25:34.242Z,101856.31
2022-12-31T13:28:10.490Z,101857.47
2022-12-31T13:30:51.136Z,101861.20
2022-12-31T13:33:28.473Z,101863.76
2022-12-31T13:35:58.190Z,101866.42
2022-12-31T13:38:39.033Z,101869.42
2022-12-31T13:41:42.590Z,101874.66
2022-12-31T13:44:17.177Z,101870.81
2022-12-31T13:47:07.202Z,101865.17
2022-12-31T13:49:59.496Z,101868.80
2022-12-31T13:53:01.376Z,101871.41
2022-12-31T13:55:38.689Z,101873.96
2022-12-31T13:58:28.190Z,101868.46
2022-12-31T14:01:26.287Z,101871.34
2022-12-31T14:04:28.770Z,101876.38
2022-12-31T14:07:14.060Z,101880.77
2022-12-31T14:09:42.993Z,101883.10
2022-12-31T14:12:20.862Z,101880.44
2022-12-31T14:15:09.392Z,101883.48
2022-12-31T14:18:18.744Z,101888.92
2022-12-31T14:21:07.508Z,101886.73
2022-12-31T14:24:04.267Z,101895.32
2022-12-31T14:26:56.059Z,101895.39
2022-12-31T14:29:58.656Z,101891.60
2022-12-31T14:32:48.422Z,101888.54
2022-12-31T14:35:35.195Z,101891.04
2022-12-31T14:38:58.246Z,101891.65
2022-12-31T14:41:55.354Z,101893.89
2022-12-31T14:44:58.158Z,101895.02
2022-12-31T14:47:47.273Z,101891.02
2022-12-31T14:50:22.735Z,101886.45
2022-12-31T14:53:08.231Z,101888.95
2022-12-31T14:55:40.893Z,101885.98
2022-12-31T14:58:42.733Z,101878.17
2022-12-31T15:01:19.293Z,101877.38
2022-12-31T15:03:51.779Z,101873.95
2022-12-31T15:06:23.434Z,101880.43
2022-12-31T15:09:31.871Z,101879.80
2022-12-31T15:12:42.012Z,101877.91
2022-12-31T15:15:55.277Z,101875.54
2022-12-31T15:18:50.672Z,101877.03
2022-12-31T15:21:55.534Z,101879.02
2022-12-31T15:24:37.719Z,101881.00
2022-12-31T15:27:38.854Z,101883.38
2022-12-31T15:30:47.481Z,101888.90
2022-12-31T15:33:29.308Z,101896.95
2022-12-31T15:36:11.007Z,101895.33
2022-12-31T15:38:49.881Z,101898.20
2022-12-31T15:41:42.912Z,101900.54
2022-12-31T15:44:28.935Z,101903.10
2022-12-31T15:47:34.945Z,101901.05
2022-12-31T15:50:17.672Z,101899.30
2022-12-31T15:53:01.093Z,101907.30
2022-12-31T15:55:52.428Z,101908.39
2022-12-31T15:58:26.653Z,101903.42
2022-12-31T16:01:17.810Z,101901.70
2022-12-31T16:04:01.835Z,101905.45
2022-12-31T16:06:35.936Z,101911.88
2022-12-31T16:09:18.952Z,101914.54
2022-12-31T16:11:48.280Z,101914.05
2022-12-31T16:14:36.777Z,101910.11
2022-12-31T16:17:06.974Z,101908.20
2022-12-31T16:19:44.871Z,101908.48
2022-12-31T16:22:25.659Z,101908.73
2022-12-31T16:27:52.039Z,101909.04
2022-12-31T16:30:32.335Z,101903.46
2022-12-31T16:33:05.966Z,101899.05
2022-12-31T16:35:37.146Z,101901.00
2022-12-31T16:38:16.045Z,101903.11
2022-12-31T16:41:02.286Z,101908.56
2022-12-31T16:43:39.702Z,101913.05
2022-12-31T16:46:17.320Z,101914.66
2022-12-31T16:48:54.621Z,101908.45
2022-12-31T16:51:30.151Z,101909.58
2022-12-31T16:54:01.853Z,101908.84
2022-12-31T16:56:37.326Z,101913.58
2022-12-31T16:59:46.035Z,101919.20
2022-12-31T17:02:23.357Z,101918.25
2022-12-31T17:04:56.343Z,101912.55
2022-12-31T17:07:27.833Z,101908.73
2022-12-31T17:10:08.808Z,101909.95
2022-12-31T17:15:46.949Z,101912.34
2022-12-31T17:18:24.600Z,101910.74
2022-12-31T17:20:55.766Z,101911.95
2022-12-31T17:23:31.965Z,101918.11
2022-12-31T17:26:13.392Z,101911.20
2022-12-31T17:28:51.990Z,101910.63
2022-12-31T17:31:39.839Z,101911.91
2022-12-31T17:34:14.569Z,101913.53
2022-12-31T17:37:18.852Z,101917.46
2022-12-31T17:39:53.849Z,101918.95
2022-12-31T17:42:34.066Z,101915.29
2022-12-31T17:45:08.908Z,101921.98
2022-12-31T17:47:41.590Z,101916.41
2022-12-31T17:50:20.631Z,101907.45
2022-12-31T17:52:49.792Z,101909.02
2022-12-31T17:55:19.041Z,101903.69
2022-12-31T17:57:58.440Z,101902.90
2022-12-31T18:00:28.031Z,101908.42
2022-12-31T18:02:56.896Z,101909.45
2022-12-31T18:05:26.517Z,101908.43
2022-12-31T18:07:55.346Z,101902.85
2022-12-31T18:10:25.749Z,101903.19
2022-12-31T18:12:54.605Z,101908.59
2022-12-31T18:15:25.212Z,101910.15
2022-12-31T18:17:53.969Z,101913.45
2022-12-31T18:20:24.143Z,101918.87
2022-12-31T18:22:53.059Z,101922.32
2022-12-31T18:25:24.835Z,101923.95
2022-12-31T18:27:53.631Z,101923.59
2022-12-31T18:30:23.585Z,101926.70
2022-12-31T18:32:52.581Z,101926.60
2022-12-31T18:35:57.762Z,101933.20
2022-12-31T18:38:15.485Z,101936.54
2022-12-31T18:41:23.775Z,101945.00
2022-12-31T18:43:52.976Z,101948.69
2022-12-31T18:46:24.938Z,101947.24
2022-12-31T18:48:53.819Z,101946.77
2022-12-31T18:51:31.392Z,101943.05
2022-12-31T18:54:02.123Z,101946.42
2022-12-31T18:56:31.744Z,101943.59
2022-12-31T18:59:02.742Z,101945.42
2022-12-31T19:01:38.696Z,101948.65
2022-12-31T19:04:26.569Z,101953.25
2022-12-31T19:06:57.202Z,101954.27
2022-12-31T19:12:15.477Z,101952.90
2022-12-31T19:14:44.319Z,101958.52
2022-12-31T19:17:13.166Z,101956.36
2022-12-31T19:19:42.006Z,101955.11
2022-12-31T19:22:16.011Z,101944.05
2022-12-31T19:24:44.887Z,101935.38
2022-12-31T19:27:14.036Z,101935.80
2022-12-31T19:29:42.828Z,101942.22
2022-12-31T19:32:11.692Z,101942.98
2022-12-31T19:34:40.645Z,101939.27
2022-12-31T19:37:16.012Z,101943.60
2022-12-31T19:39:44.800Z,101948.48
2022-12-31T19:42:16.340Z,101948.63
2022-12-31T19:44:45.173Z,101948.23
2022-12-31T19:47:14.256Z,101950.95
2022-12-31T19:49:43.015Z,101945.98
2022-12-31T19:52:11.794Z,101943.13
2022-12-31T19:54:40.684Z,101940.90
2022-12-31T19:57:09.462Z,101936.94
2022-12-31T19:59:38.242Z,101934.79
2022-12-31T20:02:07.614Z,101939.92
2022-12-31T20:04:36.667Z,101944.15
2022-12-31T20:07:05.362Z,101939.17
2022-12-31T20:09:34.233Z,101935.46
2022-12-31T20:12:02.955Z,101934.41
2022-12-31T20:14:31.880Z,101935.60
2022-12-31T20:17:00.690Z,101930.52
2022-12-31T20:19:29.604Z,101937.59
2022-12-31T20:21:58.448Z,101940.61
2022-12-31T20:24:27.286Z,101947.92
2022-12-31T20:26:56.057Z,101950.40
2022-12-31T20:29:24.895Z,101961.11
2022-12-31T20:31:53.691Z,101971.47
2022-12-31T20:34:22.608Z,101973.52
2022-12-31T20:36:58.164Z,101975.89
2022-12-31T20:39:27.034Z,101971.86
2022-12-31T20:41:55.941Z,101973.42
2022-12-31T20:44:24.741Z,101969.98
2022-12-31T20:46:53.505Z,101967.70
2022-12-31T20:49:44.251Z,101968.36
2022-12-31T20:52:11.223Z,101974.45
2022-12-31T20:54:40.069Z,101973.38
2022-12-31T20:57:08.808Z,101974.79
2022-12-31T20:59:37.596Z,101977.51
2022-12-31T21:02:22.861Z,101973.80
2022-12-31T21:04:55.332Z,101966.00
2022-12-31T21:07:24.631Z,101963.94
2022-12-31T21:09:53.351Z,101960.84
2022-12-31T21:12:40.455Z,101962.05
2022-12-31T21:15:13.802Z,101968.26
2022-12-31T21:17:43.164Z,101973.70
2022-12-31T21:20:13.228Z,101974.14
2022-12-31T21:22:41.943Z,101974.39
2022-12-31T21:25:11.136Z,101974.74
2022-12-31T21:27:39.904Z,101978.91
2022-12-31T21:30:18.961Z,101982.38
2022-12-31T21:32:48.776Z,101982.03
2022-12-31T21:38:07.994Z,101981.82
2022-12-31T21:40:39.489Z,101984.11
2022-12-31T21:43:10.784Z,101982.61
2022-12-31T21:45:39.913Z,101983.98
2022-12-31T21:48:20.740Z,101981.73
2022-12-31T21:51:05.195Z,101980.68
2022-12-31T21:53:36.881Z,101962.23
2022-12-31T21:56:11.682Z,101976.20
2022-12-31T21:58:44.429Z,101973.63
2022-12-31T22:01:40.313Z,101971.41
2022-12-31T22:04:28.221Z,101973.27
2022-12-31T22:06:58.384Z,101972.33
2022-12-31T22:09:27.193Z,101978.16
2022-12-31T22:11:55.960Z,101976.45
2022-12-31T22:14:24.763Z,101974.93
2022-12-31T22:16:53.574Z,101977.86
2022-12-31T22:19:22.427Z,101979.77
2022-12-31T22:21:51.267Z,101979.58
2022-12-31T22:24:19.973Z,101979.73
2022-12-31T22:26:48.819Z,101985.50
2022-12-31T22:29:19.456Z,101982.69
2022-12-31T22:31:48.239Z,101987.64
2022-12-31T22:34:17.079Z,101983.52
2022-12-31T22:36:45.889Z,101973.85
2022-12-31T22:39:43.334Z,101967.66
2022-12-31T22:42:05.147Z,101970.80
2022-12-31T22:44:33.979Z,101969.73
2022-12-31T22:47:02.748Z,101978.21
2022-12-31T22:49:31.518Z,101987.04
2022-12-31T22:52:04.218Z,101987.89
2022-12-31T22:54:36.003Z,101985.33
2022-12-31T22:57:05.189Z,101975.70
2022-12-31T22:59:33.971Z,101975.86
2022-12-31T23:02:02.808Z,101974.55
2022-12-31T23:04:31.949Z,101982.09
2022-12-31T23:07:01.181Z,101987.44
2022-12-31T23:09:48.327Z,101993.50
2022-12-31T23:12:17.111Z,101996.42
2022-12-31T23:15:04.522Z,101990.91
2022-12-31T23:17:51.603Z,101985.29
2022-12-31T23:20:43.258Z,101979.41
2022-12-31T23:23:16.252Z,101979.23
2022-12-31T23:25:49.805Z,101975.17
2022-12-31T23:28:27.590Z,101975.17
2022-12-31T23:30:56.540Z,101980.40
2022-12-31T23:33:26.519Z,101979.73
2022-12-31T23:36:08.492Z,101977.02
2022-12-31T23:38:37.233Z,101980.86
2022-12-31T23:41:19.215Z,101983.63
2022-12-31T23:43:48.497Z,101981.45
2022-12-31T23:46:17.659Z,101987.64
2022-12-31T23:48:46.416Z,101992.44
2022-12-31T23:51:15.305Z,101990.07
2022-12-31T23:53:44.129Z,101991.80
2022-12-31T23:56:23.333Z,101995.59
2022-12-31T23:58:58.091Z,101997.84
